Time;durP1;ratioP1;P1;durP2;ratioP2;P2;SDS_P1;SDS_P2;PMS_P1;PMS_P2;Temp;Humidity;BMP_temperature;BMP_pressure;BME280_temperature;BME280_humidity;BME280_pressure;Samples;Min_cycle;Max_cycle;Signal;HPM_P1;HPM_P2
2023/10/10 00:02:28;;;;;;;24.23;15.80;;;15.20;99.90;;;;;;5055167;28;20191;-78
2023/10/10 00:04:54;;;;;;;24.03;16.33;;;15.10;99.90;;;;;;5053904;28;20179;-79
2023/10/10 00:07:23;;;;;;;23.27;16.70;;;15.20;99.90;;;;;;5055557;28;20172;-79
2023/10/10 00:09:50;;;;;;;26.20;17.03;;;15.10;99.90;;;;;;5055558;28;20172;-79
2023/10/10 00:12:26;;;;;;;26.80;16.33;;;15.10;99.90;;;;;;5054507;28;20206;-79
2023/10/10 00:14:58;;;;;;;23.20;15.70;;;15.00;99.90;;;;;;5057843;28;20148;-78
2023/10/10 00:17:34;;;;;;;23.33;15.97;;;15.00;99.90;;;;;;5055598;28;20187;-78
2023/10/10 00:20:08;;;;;;;23.93;15.33;;;15.00;99.90;;;;;;5053540;28;20264;-79
2023/10/10 00:22:36;;;;;;;22.57;16.27;;;15.00;99.90;;;;;;5053248;28;20208;-78
2023/10/10 00:25:04;;;;;;;23.07;17.23;;;14.90;99.90;;;;;;5054502;28;20166;-78
2023/10/10 00:27:31;;;;;;;22.43;16.13;;;14.90;99.90;;;;;;5054692;28;20254;-78
2023/10/10 00:30:02;;;;;;;25.33;17.47;;;14.90;99.90;;;;;;5053112;28;20198;-77
2023/10/10 00:32:30;;;;;;;20.80;17.23;;;14.80;99.90;;;;;;5055242;28;20726;-78
2023/10/10 00:34:59;;;;;;;26.60;18.67;;;14.80;99.90;;;;;;5055000;28;20152;-78
2023/10/10 00:37:33;;;;;;;25.63;18.60;;;14.70;99.90;;;;;;5054618;28;20225;-78
2023/10/10 00:40:03;;;;;;;27.53;17.57;;;14.80;99.90;;;;;;5054880;28;20197;-78
2023/10/10 00:42:41;;;;;;;31.23;19.00;;;14.70;99.90;;;;;;5054695;28;20183;-78
2023/10/10 00:45:12;;;;;;;29.53;17.87;;;14.70;99.90;;;;;;5055232;28;20505;-78
2023/10/10 00:47:50;;;;;;;25.07;18.50;;;14.60;99.90;;;;;;5055756;28;20513;-78
2023/10/10 00:50:24;;;;;;;24.33;18.13;;;14.60;99.90;;;;;;5054261;28;20156;-79
2023/10/10 00:53:00;;;;;;;24.97;18.77;;;14.50;99.90;;;;;;5053109;28;20206;-78
2023/10/10 00:55:33;;;;;;;26.50;18.60;;;14.50;99.90;;;;;;5052984;28;20622;-79
2023/10/10 00:58:00;;;;;;;29.17;19.70;;;14.50;99.90;;;;;;5054427;28;20279;-78
2023/10/10 01:00:29;;;;;;;25.30;18.17;;;14.50;99.90;;;;;;5054554;28;20183;-79
2023/10/10 01:02:56;;;;;;;27.43;19.17;;;14.40;99.90;;;;;;5053187;28;20199;-79
2023/10/10 01:05:39;;;;;;;27.10;18.70;;;14.40;99.90;;;;;;5052323;28;20228;-79
2023/10/10 01:08:06;;;;;;;26.43;18.83;;;14.40;99.90;;;;;;5054286;28;20243;-79
2023/10/10 01:10:37;;;;;;;25.00;17.80;;;14.30;99.90;;;;;;5054282;28;20250;-79
2023/10/10 01:13:03;;;;;;;26.93;17.80;;;14.30;99.90;;;;;;5052793;28;20256;-78
2023/10/10 01:15:35;;;;;;;24.80;19.07;;;14.20;99.90;;;;;;5052814;28;20233;-79
2023/10/10 01:18:00;;;;;;;25.13;17.57;;;14.20;99.90;;;;;;5054402;28;20275;-78
2023/10/10 01:20:36;;;;;;;25.90;17.73;;;14.10;99.90;;;;;;5052591;28;20211;-79
2023/10/10 01:23:03;;;;;;;25.53;17.43;;;14.10;99.90;;;;;;5053670;28;20263;-78
2023/10/10 01:30:57;;;;;;;20.97;14.97;;;14.00;99.90;;;;;;5053455;28;20218;-78
2023/10/10 01:33:35;;;;;;;23.53;16.73;;;14.00;99.90;;;;;;5053740;28;20195;-79
2023/10/10 01:36:03;;;;;;;23.97;16.93;;;14.00;99.90;;;;;;5053907;28;20524;-78
2023/10/10 01:38:41;;;;;;;24.53;15.77;;;14.00;99.90;;;;;;5053448;28;20600;-79
2023/10/10 01:41:22;;;;;;;22.43;14.00;;;14.00;99.90;;;;;;5052150;28;20642;-78
2023/10/10 01:43:53;;;;;;;25.93;15.23;;;14.00;99.90;;;;;;5053847;28;20183;-79
2023/10/10 01:46:28;;;;;;;26.27;14.53;;;13.90;99.90;;;;;;5053553;28;20144;-78
2023/10/10 01:48:54;;;;;;;22.83;14.83;;;13.80;99.90;;;;;;5053272;28;20213;-79
2023/10/10 01:51:20;;;;;;;20.00;14.73;;;13.80;99.90;;;;;;5054053;28;20168;-78
2023/10/10 01:53:48;;;;;;;24.33;14.83;;;13.80;99.90;;;;;;5053760;28;20226;-78
2023/10/10 01:56:13;;;;;;;25.53;17.57;;;13.80;99.90;;;;;;5052402;28;20225;-78
2023/10/10 01:58:40;;;;;;;20.87;15.20;;;13.80;99.90;;;;;;5053519;28;20542;-78
2023/10/10 02:01:14;;;;;;;23.13;15.47;;;13.80;99.90;;;;;;5053689;28;20171;-78
2023/10/10 02:03:40;;;;;;;23.90;17.70;;;13.70;99.90;;;;;;5053712;28;20202;-78
2023/10/10 02:06:14;;;;;;;25.57;17.30;;;13.70;99.90;;;;;;5052164;28;20194;-78
2023/10/10 02:08:46;;;;;;;22.80;17.30;;;13.70;99.90;;;;;;5053750;28;20179;-78
2023/10/10 02:11:12;;;;;;;24.53;16.90;;;13.70;99.90;;;;;;5053489;28;20221;-79
2023/10/10 02:13:39;;;;;;;24.90;18.33;;;13.60;99.90;;;;;;5052220;28;20546;-78
2023/10/10 02:16:06;;;;;;;26.07;18.23;;;13.60;99.90;;;;;;5053633;28;20175;-78
2023/10/10 02:18:39;;;;;;;30.40;17.33;;;13.60;99.90;;;;;;5055276;28;20210;-79
2023/10/10 02:21:15;;;;;;;25.23;17.20;;;13.60;99.90;;;;;;5057626;28;20162;-77
2023/10/10 02:23:45;;;;;;;28.37;17.60;;;13.60;99.90;;;;;;5057040;28;20183;-78
2023/10/10 02:26:35;;;;;;;21.13;16.27;;;13.50;99.90;;;;;;5055493;28;20258;-78
2023/10/10 02:29:18;;;;;;;23.93;15.53;;;13.50;99.90;;;;;;5056896;28;20155;-79
2023/10/10 02:31:51;;;;;;;23.00;14.00;;;13.40;99.90;;;;;;5056608;28;20553;-78
2023/10/10 02:34:19;;;;;;;22.40;13.93;;;13.40;99.90;;;;;;5055210;28;20183;-78
2023/10/10 02:36:53;;;;;;;20.93;15.13;;;13.40;99.90;;;;;;5056438;28;20533;-79
2023/10/10 02:39:27;;;;;;;22.97;16.70;;;13.40;99.90;;;;;;5055315;28;20163;-78
2023/10/10 02:41:59;;;;;;;23.27;16.40;;;13.40;99.90;;;;;;5056628;28;20179;-79
2023/10/10 02:47:00;;;;;;;25.90;17.17;;;13.50;99.90;;;;;;5057032;28;20151;-79
2023/10/10 02:51:55;;;;;;;27.40;18.80;;;13.40;99.90;;;;;;5056424;28;20694;-79
2023/10/10 02:56:48;;;;;;;28.17;19.77;;;13.30;99.90;;;;;;5057210;28;20555;-78
2023/10/10 02:59:21;;;;;;;25.47;19.07;;;13.30;99.90;;;;;;5056573;28;20541;-78
2023/10/10 03:02:30;;;;;;;28.20;19.33;;;13.20;99.90;;;;;;5056176;28;20155;-78
2023/10/10 03:07:27;;;;;;;25.23;19.00;;;13.20;99.90;;;;;;5055933;28;20159;-78
2023/10/10 03:12:30;;;;;;;28.07;18.90;;;13.30;99.90;;;;;;5056266;28;20195;-78
2023/10/10 03:15:12;;;;;;;24.97;17.87;;;13.30;99.90;;;;;;5055854;28;20178;-78
2023/10/10 03:17:49;;;;;;;25.80;18.90;;;13.20;99.90;;;;;;5056230;28;20241;-77
2023/10/10 03:25:52;;;;;;;28.13;18.80;;;13.20;99.90;;;;;;5057159;28;20156;-79
2023/10/10 03:33:43;;;;;;;26.57;17.93;;;13.20;99.90;;;;;;5056062;28;20187;-78
2023/10/10 03:36:30;;;;;;;25.33;18.83;;;13.10;99.90;;;;;;5056258;28;20226;-78
2023/10/10 05:25:29;;;;;;;35.83;23.43;;;12.80;99.90;;;;;;5068669;28;20335;-78
2023/10/10 05:27:58;;;;;;;34.23;23.23;;;12.90;99.90;;;;;;5068294;28;20266;-78
2023/10/10 05:30:25;;;;;;;34.03;23.43;;;12.90;99.90;;;;;;5068909;28;20175;-77
2023/10/10 05:33:04;;;;;;;33.63;21.83;;;12.90;99.90;;;;;;5067324;28;20196;-78
2023/10/10 05:35:31;;;;;;;33.17;22.07;;;12.90;99.90;;;;;;5059159;28;20526;-78
2023/10/10 05:37:59;;;;;;;32.57;20.73;;;12.90;99.90;;;;;;5054428;28;20196;-78
2023/10/10 05:40:24;;;;;;;30.63;20.20;;;12.90;99.90;;;;;;5053741;28;20171;-77
2023/10/10 05:42:51;;;;;;;27.30;20.10;;;12.90;99.90;;;;;;5054304;28;20282;-78
2023/10/10 05:45:18;;;;;;;30.97;20.13;;;13.00;99.90;;;;;;5052114;28;20225;-78
2023/10/10 05:47:44;;;;;;;32.13;20.13;;;13.00;99.90;;;;;;5052371;28;20251;-78
2023/10/10 05:50:10;;;;;;;26.83;19.03;;;13.00;99.90;;;;;;5052267;28;20254;-78
2023/10/10 05:52:39;;;;;;;26.47;18.20;;;13.00;99.90;;;;;;5052971;28;20195;-78
2023/10/10 05:55:07;;;;;;;26.73;19.57;;;13.00;99.90;;;;;;5053481;28;20769;-78
2023/10/10 05:57:36;;;;;;;30.20;17.47;;;13.00;99.90;;;;;;5053414;28;20199;-78
2023/10/10 06:00:14;;;;;;;27.13;18.87;;;13.00;99.90;;;;;;5051479;28;20670;-78
2023/10/10 06:02:45;;;;;;;27.77;17.10;;;13.00;99.90;;;;;;5046393;28;20219;-78
2023/10/10 06:05:12;;;;;;;24.33;17.30;;;13.00;99.90;;;;;;5033374;28;20181;-79
2023/10/10 06:07:43;;;;;;;24.67;16.53;;;13.00;99.90;;;;;;5033497;28;20172;-78
2023/10/10 06:10:16;;;;;;;24.57;16.83;;;13.00;99.90;;;;;;5034065;28;20672;-78
2023/10/10 06:12:42;;;;;;;27.50;17.43;;;13.10;99.90;;;;;;5033565;28;20196;-78
2023/10/10 06:15:08;;;;;;;28.87;17.13;;;13.10;99.90;;;;;;5048999;28;20179;-78
2023/10/10 06:17:34;;;;;;;24.00;16.73;;;13.10;99.90;;;;;;5032931;28;20203;-78
2023/10/10 06:20:06;;;;;;;23.03;16.97;;;13.10;99.90;;;;;;5032773;28;20176;-77
2023/10/10 06:22:32;;;;;;;22.97;16.93;;;13.10;99.90;;;;;;5048234;28;20671;-77
2023/10/10 06:24:58;;;;;;;27.90;17.13;;;13.20;99.90;;;;;;5032439;28;20180;-78
2023/10/10 06:27:28;;;;;;;23.63;16.13;;;13.20;99.90;;;;;;5047801;28;20188;-78
2023/10/10 06:30:00;;;;;;;22.00;16.87;;;13.20;99.90;;;;;;5048046;28;20196;-78
2023/10/10 06:32:30;;;;;;;20.70;14.53;;;13.20;99.90;;;;;;5032846;28;20200;-78
2023/10/10 06:37:41;;;;;;;24.37;15.30;;;13.20;99.90;;;;;;5032987;28;20211;-77
2023/10/10 06:40:08;;;;;;;25.00;15.90;;;13.30;99.90;;;;;;5032818;28;20203;-78
2023/10/10 06:42:35;;;;;;;22.83;15.03;;;13.30;99.90;;;;;;5032696;28;20192;-78
2023/10/10 06:45:11;;;;;;;19.27;15.00;;;13.30;99.90;;;;;;5031387;28;20173;-78
2023/10/10 06:47:43;;;;;;;23.37;15.60;;;13.30;99.90;;;;;;5033073;28;20163;-78
2023/10/10 06:50:12;;;;;;;23.50;14.60;;;13.40;99.90;;;;;;5032904;28;20180;-78
2023/10/10 06:52:38;;;;;;;24.20;14.67;;;13.40;99.90;;;;;;5032848;28;20210;-78
2023/10/10 06:55:10;;;;;;;21.60;14.83;;;13.40;99.90;;;;;;5032758;28;20177;-78
2023/10/10 06:57:38;;;;;;;22.80;14.80;;;13.50;99.90;;;;;;5032763;28;20224;-78
2023/10/10 07:00:20;;;;;;;21.13;14.43;;;13.50;99.90;;;;;;5047877;28;20173;-77
2023/10/10 07:02:50;;;;;;;23.97;14.90;;;13.50;99.90;;;;;;5048503;28;20614;-78
2023/10/10 07:05:16;;;;;;;25.03;14.73;;;13.50;99.90;;;;;;5035907;28;20290;-78
2023/10/10 07:07:44;;;;;;;24.70;15.37;;;13.50;99.90;;;;;;5034418;28;20227;-78
2023/10/10 07:10:11;;;;;;;23.00;15.13;;;13.50;99.90;;;;;;5036091;28;20237;-78
2023/10/10 07:12:38;;;;;;;22.07;14.70;;;13.60;99.90;;;;;;5035824;28;20215;-77
2023/10/10 07:15:06;;;;;;;21.17;14.40;;;13.60;99.90;;;;;;5035952;28;20230;-78
2023/10/10 07:17:32;;;;;;;23.43;14.77;;;13.70;99.90;;;;;;5051115;28;20663;-78
2023/10/10 07:22:28;;;;;;;20.80;15.20;;;13.70;99.90;;;;;;5035968;28;20184;-77
2023/10/10 07:25:06;;;;;;;19.90;14.97;;;13.70;99.90;;;;;;5050863;28;20184;-77
2023/10/10 07:27:43;;;;;;;24.20;14.17;;;13.80;99.90;;;;;;5034285;28;20160;-78
2023/10/10 07:30:16;;;;;;;22.77;14.90;;;13.80;99.90;;;;;;5035347;28;20191;-78
2023/10/10 07:32:43;;;;;;;20.63;13.70;;;13.80;99.90;;;;;;5051402;28;20207;-78
2023/10/10 07:35:14;;;;;;;23.23;14.47;;;13.80;99.90;;;;;;5051147;28;20179;-78
2023/10/10 07:37:44;;;;;;;20.27;13.47;;;13.80;99.90;;;;;;5036016;28;20239;-78
2023/10/10 07:40:19;;;;;;;21.80;14.10;;;13.90;99.90;;;;;;5036002;28;20176;-78
2023/10/10 07:42:50;;;;;;;26.50;16.17;;;13.90;99.90;;;;;;5035514;28;20210;-78
2023/10/10 07:45:26;;;;;;;26.10;16.07;;;14.00;99.90;;;;;;5036031;28;20175;-78
2023/10/10 07:50:26;;;;;;;25.13;15.83;;;14.00;99.90;;;;;;5036380;28;20156;-77
2023/10/10 07:52:53;;;;;;;25.83;16.17;;;14.10;99.90;;;;;;5035740;28;20619;-78
2023/10/10 07:55:22;;;;;;;28.20;16.43;;;14.10;99.90;;;;;;5035818;28;20656;-78
2023/10/10 07:57:59;;;;;;;27.23;16.63;;;14.20;99.90;;;;;;5051063;28;20192;-79
2023/10/10 08:00:35;;;;;;;28.10;17.10;;;14.30;99.90;;;;;;5035920;28;20149;-77
2023/10/10 08:03:06;;;;;;;24.90;16.53;;;14.30;99.90;;;;;;5050841;28;20196;-78
2023/10/10 08:05:32;;;;;;;24.50;15.40;;;14.40;99.90;;;;;;5051081;28;20169;-78
2023/10/10 08:07:57;;;;;;;27.97;16.10;;;14.50;99.90;;;;;;5036048;28;20489;-78
2023/10/10 08:10:29;;;;;;;24.60;15.43;;;14.50;99.90;;;;;;5035682;28;20179;-78
2023/10/10 08:13:00;;;;;;;23.90;15.37;;;14.50;99.90;;;;;;5033946;28;20753;-78
2023/10/10 08:15:26;;;;;;;23.90;14.00;;;14.60;99.90;;;;;;5035522;28;20162;-78
2023/10/10 08:17:54;;;;;;;23.43;14.77;;;14.60;99.90;;;;;;5050834;28;20200;-78
2023/10/10 08:23:08;;;;;;;25.17;14.97;;;14.80;99.90;;;;;;5036776;28;20199;-78
2023/10/10 08:25:37;;;;;;;23.80;13.27;;;14.80;99.90;;;;;;5037523;28;20164;-78
2023/10/10 08:28:04;;;;;;;20.33;12.60;;;14.90;99.90;;;;;;5035605;28;20175;-78
2023/10/10 08:30:30;;;;;;;20.00;12.83;;;14.90;99.90;;;;;;5035072;28;20216;-78
2023/10/10 08:32:58;;;;;;;19.90;13.53;;;15.00;99.90;;;;;;5034816;28;20563;-78
2023/10/10 08:35:25;;;;;;;18.00;13.23;;;15.00;99.90;;;;;;5034854;28;20179;-79
2023/10/10 08:37:51;;;;;;;21.43;12.40;;;15.10;99.90;;;;;;5035157;28;20199;-78
2023/10/10 08:40:20;;;;;;;22.97;12.90;;;15.10;99.90;;;;;;5034069;28;20636;-79
2023/10/10 08:42:49;;;;;;;16.83;12.33;;;15.10;99.90;;;;;;5034991;28;20218;-78
2023/10/10 08:45:22;;;;;;;21.80;11.73;;;15.30;99.90;;;;;;5035884;28;20546;-77
2023/10/10 08:48:01;;;;;;;20.70;12.23;;;15.30;99.90;;;;;;5035288;28;20184;-78
2023/10/10 08:50:37;;;;;;;20.30;12.07;;;15.30;99.90;;;;;;5034962;28;20239;-77
2023/10/10 08:53:03;;;;;;;17.83;11.60;;;15.40;99.90;;;;;;5035018;28;20191;-79
2023/10/10 08:55:29;;;;;;;18.67;11.40;;;15.50;99.90;;;;;;5050090;28;20307;-78
2023/10/10 08:57:55;;;;;;;16.73;11.63;;;15.50;99.90;;;;;;5034655;28;20192;-78
2023/10/10 09:00:28;;;;;;;18.10;10.20;;;15.70;99.90;;;;;;5034629;28;20177;-79
2023/10/10 09:02:56;;;;;;;18.63;10.93;;;15.90;99.90;;;;;;5050030;28;20199;-78
2023/10/10 09:05:24;;;;;;;22.10;10.60;;;15.80;99.90;;;;;;5034631;28;20242;-77
2023/10/10 09:07:53;;;;;;;15.17;9.90;;;15.90;99.90;;;;;;5034002;28;20579;-78
2023/10/10 09:10:28;;;;;;;15.77;10.70;;;16.00;99.90;;;;;;5050935;28;20184;-79
2023/10/10 09:12:58;;;;;;;16.83;10.17;;;16.10;99.90;;;;;;5038059;28;20195;-78
2023/10/10 09:15:25;;;;;;;15.30;10.07;;;16.20;99.90;;;;;;5040670;28;20156;-77
2023/10/10 09:17:58;;;;;;;18.23;10.20;;;16.30;99.90;;;;;;5062117;28;20255;-78
2023/10/10 09:20:28;;;;;;;21.10;10.07;;;16.30;99.90;;;;;;5039826;28;20164;-79
2023/10/10 09:22:58;;;;;;;19.23;10.20;;;16.40;99.90;;;;;;5050365;28;20196;-79
2023/10/10 09:25:48;;;;;;;20.03;10.37;;;16.40;99.90;;;;;;5033884;28;20168;-79
2023/10/10 09:28:15;;;;;;;16.40;9.23;;;16.50;99.90;;;;;;5036341;28;20578;-79
2023/10/10 09:30:58;;;;;;;16.20;9.43;;;16.50;99.90;;;;;;5050531;28;20245;-78
2023/10/10 09:33:27;;;;;;;16.97;9.27;;;16.60;99.90;;;;;;5036520;28;20192;-79
2023/10/10 09:36:09;;;;;;;18.83;9.30;;;16.60;99.90;;;;;;5051427;28;20180;-79
2023/10/10 09:38:36;;;;;;;18.47;9.77;;;16.70;99.90;;;;;;5035479;28;20188;-79
2023/10/10 09:41:26;;;;;;;15.63;9.43;;;16.70;99.90;;;;;;5050309;28;20195;-79
2023/10/10 09:49:45;;;;;;;20.03;8.93;;;16.90;99.90;;;;;;5035270;28;20176;-79
2023/10/10 09:57:58;;;;;;;12.50;8.30;;;17.10;99.90;;;;;;5035384;28;20216;-79
2023/10/10 10:00:31;;;;;;;15.53;8.77;;;17.20;99.90;;;;;;5034549;28;20601;-79
2023/10/10 10:03:00;;;;;;;13.57;8.10;;;17.30;99.90;;;;;;5034636;28;20694;-79
2023/10/10 10:05:28;;;;;;;11.13;7.67;;;17.30;99.90;;;;;;5034338;28;20173;-79
2023/10/10 10:08:21;;;;;;;11.60;8.00;;;17.40;99.90;;;;;;5036169;28;20183;-79
2023/10/10 10:10:59;;;;;;;13.20;7.10;;;17.50;99.90;;;;;;5035840;28;20161;-79
2023/10/10 10:13:48;;;;;;;12.77;6.63;;;17.50;99.90;;;;;;5034261;28;20241;-79
2023/10/10 10:16:37;;;;;;;15.20;7.47;;;17.60;99.90;;;;;;5034823;28;20172;-79
2023/10/10 10:19:17;;;;;;;12.60;6.30;;;17.70;99.90;;;;;;5035964;28;20161;-79
2023/10/10 10:22:06;;;;;;;11.37;6.17;;;17.80;99.90;;;;;;5036278;28;20616;-82
2023/10/10 10:24:33;;;;;;;8.67;6.33;;;17.80;99.90;;;;;;5035690;28;20186;-80
2023/10/10 10:27:31;;;;;;;11.60;6.77;;;18.00;99.90;;;;;;5034569;28;20181;-78
2023/10/10 10:30:10;;;;;;;12.90;5.80;;;18.00;99.90;;;;;;5049434;28;20656;-78
2023/10/10 10:32:39;;;;;;;11.57;6.60;;;18.00;99.90;;;;;;5032870;28;20204;-78
2023/10/10 10:35:12;;;;;;;13.67;6.10;;;18.10;99.90;;;;;;5033943;28;20601;-78
2023/10/10 10:37:39;;;;;;;13.23;6.47;;;18.20;99.90;;;;;;5035214;28;20686;-77
2023/10/10 10:42:41;;;;;;;9.10;5.57;;;18.20;99.90;;;;;;5036982;28;20226;-78
2023/10/10 10:45:35;;;;;;;17.33;7.23;;;18.30;99.90;;;;;;5036929;28;20516;-78
2023/10/10 10:48:29;;;;;;;12.57;6.10;;;18.40;99.90;;;;;;5035832;28;20180;-78
2023/10/10 10:51:22;;;;;;;12.33;5.50;;;18.50;99.90;;;;;;5052203;28;20164;-78
2023/10/10 10:53:51;;;;;;;13.10;5.97;;;18.50;99.90;;;;;;5036632;28;20223;-78
2023/10/10 11:01:20;;;;;;;15.03;6.07;;;18.70;99.90;;;;;;5037195;28;20259;-78
2023/10/10 11:03:46;;;;;;;8.63;5.13;;;18.70;99.90;;;;;;5037490;28;20191;-78
2023/10/10 11:06:14;;;;;;;14.00;5.83;;;18.80;99.90;;;;;;5038115;28;20169;-78
2023/10/10 11:14:09;;;;;;;8.00;4.83;;;19.20;1.00;;;;;;5036742;28;20287;-78
2023/10/10 11:16:44;;;;;;;9.77;5.90;;;19.20;99.90;;;;;;5036158;28;20161;-78
2023/10/10 11:21:53;;;;;;;13.13;5.27;;;19.40;1.00;;;;;;5036960;28;20162;-79
2023/10/10 11:24:24;;;;;;;8.47;4.93;;;19.50;87.70;;;;;;5036995;28;20165;-78
2023/10/10 11:29:43;;;;;;;7.87;5.07;;;19.60;1.00;;;;;;5044107;28;20569;-78
2023/10/10 11:32:12;;;;;;;13.90;5.30;;;19.60;1.00;;;;;;5041055;28;20562;-79
2023/10/10 11:34:45;;;;;;;10.30;4.63;;;19.70;78.70;;;;;;5036815;28;20175;-79
2023/10/10 11:37:17;;;;;;;9.97;4.77;;;20.00;99.90;;;;;;5035603;28;20180;-77
2023/10/10 11:42:35;;;;;;;10.27;4.70;;;20.00;99.90;;;;;;5027049;28;20680;-78
2023/10/10 11:45:06;;;;;;;8.83;4.97;;;20.10;1.00;;;;;;5034465;28;20259;-78
2023/10/10 11:47:42;;;;;;;10.17;4.30;;;20.20;1.00;;;;;;5035498;28;20287;-77
2023/10/10 11:50:08;;;;;;;9.23;4.57;;;20.30;1.00;;;;;;5033547;28;20650;-78
2023/10/10 11:52:49;;;;;;;6.37;3.90;;;20.40;99.90;;;;;;5035826;28;20199;-77
2023/10/10 11:55:17;;;;;;;8.03;4.47;;;20.40;1.00;;;;;;5035675;28;20179;-78
2023/10/10 11:57:44;;;;;;;9.43;4.30;;;20.50;99.90;;;;;;5035223;28;20277;-77
2023/10/10 12:00:11;;;;;;;11.47;4.50;;;20.50;99.90;;;;;;5033834;28;20196;-77
2023/10/10 12:02:40;;;;;;;9.80;4.10;;;20.60;99.90;;;;;;5035561;28;20184;-78
2023/10/10 12:05:35;;;;;;;8.60;3.80;;;20.60;99.90;;;;;;5035561;28;20267;-78
2023/10/10 12:07:53;;;;;;;7.73;4.37;;;20.60;1.00;;;;;;5035285;28;20172;-78
2023/10/10 12:10:24;;;;;;;8.10;4.17;;;20.70;99.90;;;;;;5036128;28;20186;-78
2023/10/10 12:12:53;;;;;;;10.30;3.90;;;20.90;99.90;;;;;;5055281;28;20191;-78
2023/10/10 12:15:22;;;;;;;5.80;4.13;;;20.80;44.50;;;;;;5055478;28;20266;-78
2023/10/10 12:17:52;;;;;;;10.63;4.20;;;20.80;99.90;;;;;;5053651;28;20231;-77
2023/10/10 12:20:18;;;;;;;7.47;4.20;;;20.80;59.80;;;;;;5053870;28;20258;-78
2023/10/10 12:22:44;;;;;;;8.13;4.20;;;20.80;99.90;;;;;;5053520;28;20188;-77
2023/10/10 12:25:14;;;;;;;9.83;4.43;;;20.90;99.90;;;;;;5054821;28;20205;-77
2023/10/10 12:27:48;;;;;;;6.67;4.53;;;21.00;99.90;;;;;;5054943;28;20168;-78
2023/10/10 12:30:18;;;;;;;11.03;4.37;;;21.20;1.00;;;;;;5053017;28;20561;-78
2023/10/10 12:32:46;;;;;;;8.10;4.20;;;21.20;1.00;;;;;;5034398;28;20196;-78
2023/10/10 12:35:12;;;;;;;15.00;4.17;;;21.20;1.00;;;;;;5034454;28;20173;-77
2023/10/10 12:37:38;;;;;;;9.53;3.97;;;21.30;1.00;;;;;;5034435;28;20201;-78
2023/10/10 12:40:09;;;;;;;11.03;4.47;;;21.40;1.00;;;;;;5034701;28;20160;-78
2023/10/10 12:42:35;;;;;;;8.63;4.03;;;21.40;1.00;;;;;;5051339;28;20280;-78
2023/10/10 12:45:01;;;;;;;8.63;3.87;;;21.40;1.00;;;;;;5054293;28;20172;-77
2023/10/10 12:47:33;;;;;;;10.13;4.53;;;21.40;1.00;;;;;;5052983;28;20255;-78
2023/10/10 12:50:04;;;;;;;11.00;4.67;;;21.50;1.00;;;;;;5053413;28;20639;-78
2023/10/10 12:52:35;;;;;;;10.60;4.43;;;21.40;1.00;;;;;;5053169;28;20250;-78
2023/10/10 12:55:09;;;;;;;10.77;4.20;;;21.50;1.00;;;;;;5054323;28;20160;-78
2023/10/10 12:57:39;;;;;;;10.60;4.50;;;21.40;1.00;;;;;;5052880;28;20718;-78
2023/10/10 13:00:24;;;;;;;8.77;4.50;;;21.60;1.00;;;;;;5052940;28;20536;-78
2023/10/10 13:02:53;;;;;;;9.33;4.87;;;21.70;99.90;;;;;;5052535;28;20203;-78
2023/10/10 13:05:26;;;;;;;8.80;4.57;;;21.60;1.00;;;;;;5054005;28;20654;-78
2023/10/10 13:07:55;;;;;;;11.03;4.97;;;21.80;1.00;;;;;;5052611;28;20183;-78
2023/10/10 13:10:26;;;;;;;7.37;4.20;;;21.90;1.00;;;;;;5051931;28;20203;-79
2023/10/10 13:12:52;;;;;;;8.77;4.00;;;21.80;1.00;;;;;;5032746;28;20552;-78
2023/10/10 13:15:18;;;;;;;12.93;4.00;;;21.80;1.00;;;;;;5034115;28;20176;-78
2023/10/10 13:17:52;;;;;;;9.07;4.20;;;21.90;1.00;;;;;;5032392;28;20201;-77
2023/10/10 13:20:19;;;;;;;8.40;4.53;;;21.90;1.00;;;;;;5034828;28;20214;-78
2023/10/10 13:22:50;;;;;;;10.40;4.50;;;21.90;99.90;;;;;;5052697;28;20191;-79
2023/10/10 13:25:16;;;;;;;10.60;4.57;;;22.00;99.90;;;;;;5053297;28;20668;-81
2023/10/10 13:27:45;;;;;;;8.87;4.63;;;22.10;99.90;;;;;;5054749;28;20678;-79
2023/10/10 13:30:12;;;;;;;7.37;4.10;;;22.20;99.90;;;;;;5054737;28;20179;-79
2023/10/10 13:32:38;;;;;;;8.47;4.23;;;22.30;99.90;;;;;;5051858;28;20203;-80
2023/10/10 13:35:05;;;;;;;6.10;4.10;;;22.20;99.90;;;;;;5054037;28;20183;-78
2023/10/10 13:37:31;;;;;;;11.10;4.77;;;22.30;99.90;;;;;;5054524;28;20219;-79
2023/10/10 13:39:56;;;;;;;10.63;5.03;;;22.30;99.90;;;;;;5058727;28;20174;-78
2023/10/10 13:42:22;;;;;;;9.43;4.30;;;22.20;99.90;;;;;;5065447;28;20186;-78
2023/10/10 13:44:48;;;;;;;12.23;4.20;;;22.30;99.90;;;;;;5054940;28;20243;-78
2023/10/10 13:47:16;;;;;;;8.87;4.33;;;22.30;99.90;;;;;;5051011;28;21742;-78
2023/10/10 13:49:45;;;;;;;9.83;4.30;;;22.60;99.90;;;;;;5032840;28;20171;-78
2023/10/10 13:52:16;;;;;;;11.53;4.80;;;22.40;99.90;;;;;;5034088;28;20279;-79
2023/10/10 13:54:41;;;;;;;9.17;4.50;;;22.50;99.90;;;;;;5034034;28;20623;-78
2023/10/10 13:57:07;;;;;;;10.43;4.50;;;22.50;42.20;;;;;;5033817;28;20192;-79
2023/10/10 13:59:33;;;;;;;12.87;4.67;;;22.50;99.90;;;;;;5032550;28;20172;-79
2023/10/10 14:02:03;;;;;;;11.27;4.37;;;22.50;99.90;;;;;;5032915;28;20683;-78
2023/10/10 14:04:44;;;;;;;19.07;4.80;;;22.50;99.90;;;;;;5039172;28;20218;-78
2023/10/10 14:07:14;;;;;;;7.93;4.67;;;22.50;99.90;;;;;;5052072;28;20217;-78
2023/10/10 14:09:40;;;;;;;7.73;4.33;;;22.50;99.90;;;;;;5052515;28;20663;-78
2023/10/10 14:12:08;;;;;;;10.47;4.50;;;22.50;99.90;;;;;;5052991;28;20206;-77
2023/10/10 14:14:34;;;;;;;14.67;4.60;;;22.30;99.90;;;;;;5056709;28;20267;-77
2023/10/10 14:16:59;;;;;;;10.50;4.60;;;22.40;99.90;;;;;;5056524;28;20290;-77
2023/10/10 14:19:25;;;;;;;8.83;4.80;;;22.30;99.90;;;;;;5056752;28;20217;-77
2023/10/10 14:21:54;;;;;;;11.50;4.80;;;22.50;99.90;;;;;;5055114;28;20261;-78
2023/10/10 14:24:20;;;;;;;8.00;4.10;;;22.40;99.90;;;;;;5055069;28;20219;-77
2023/10/10 14:26:48;;;;;;;15.37;5.10;;;22.40;99.90;;;;;;5054949;28;20207;-77
2023/10/10 14:29:14;;;;;;;9.57;4.73;;;22.40;99.90;;;;;;5055074;28;20175;-77
2023/10/10 14:31:44;;;;;;;13.93;4.60;;;22.40;99.90;;;;;;5051043;28;20650;-78
2023/10/10 14:34:24;;;;;;;9.43;4.83;;;22.40;99.90;;;;;;5038707;28;20271;-77
2023/10/10 14:36:53;;;;;;;12.00;4.90;;;22.50;99.90;;;;;;5055011;28;20229;-77
2023/10/10 14:39:28;;;;;;;10.53;4.43;;;22.50;99.90;;;;;;5056233;28;20163;-77
2023/10/10 14:41:57;;;;;;;12.27;4.63;;;22.50;99.90;;;;;;5054191;28;20577;-77
2023/10/10 14:44:23;;;;;;;9.73;4.63;;;22.50;99.90;;;;;;5055029;28;20184;-77
2023/10/10 14:46:51;;;;;;;12.40;4.93;;;22.40;99.90;;;;;;5055954;28;20247;-77
2023/10/10 14:49:17;;;;;;;8.73;4.43;;;22.40;99.50;;;;;;5054492;28;20643;-77
2023/10/10 14:51:48;;;;;;;9.27;5.20;;;22.40;99.90;;;;;;5055698;28;20174;-77
2023/10/10 14:54:17;;;;;;;10.77;4.63;;;22.40;99.90;;;;;;5053744;28;20164;-78
2023/10/10 14:56:47;;;;;;;9.70;4.77;;;22.40;99.90;;;;;;5051104;28;20571;-77
2023/10/10 14:59:18;;;;;;;9.63;4.67;;;22.40;99.90;;;;;;5036179;28;20239;-77
2023/10/10 15:01:47;;;;;;;11.80;4.50;;;22.40;99.90;;;;;;5036724;28;20512;-77
2023/10/10 15:04:17;;;;;;;8.90;4.13;;;22.40;99.90;;;;;;5035724;28;20671;-77
2023/10/10 15:06:43;;;;;;;8.90;4.73;;;22.30;99.90;;;;;;5035676;28;20179;-77
2023/10/10 15:09:13;;;;;;;9.40;4.30;;;22.40;99.90;;;;;;5034220;28;20268;-78
2023/10/10 15:11:41;;;;;;;9.53;4.87;;;22.40;99.90;;;;;;5042302;28;20647;-77
2023/10/10 15:14:09;;;;;;;9.37;4.30;;;22.40;99.90;;;;;;5055475;28;20168;-77
2023/10/10 15:16:36;;;;;;;7.30;4.10;;;22.40;99.90;;;;;;5053951;28;20180;-77
2023/10/10 15:19:07;;;;;;;9.07;4.50;;;22.50;99.90;;;;;;5055278;28;20622;-77
2023/10/10 15:21:36;;;;;;;7.80;4.10;;;22.40;99.90;;;;;;5053860;28;20598;-78
2023/10/10 15:24:03;;;;;;;9.43;4.33;;;22.50;99.90;;;;;;5054046;28;20176;-77
2023/10/10 15:26:29;;;;;;;8.77;4.27;;;22.40;99.90;;;;;;5055043;28;20164;-76
2023/10/10 15:28:56;;;;;;;10.20;4.90;;;22.30;99.90;;;;;;5052298;28;20176;-77
2023/10/10 15:31:27;;;;;;;8.47;3.97;;;22.30;99.90;;;;;;5055265;28;20550;-77
2023/10/10 15:33:54;;;;;;;8.17;4.33;;;22.20;1.00;;;;;;5053866;28;20196;-77
2023/10/10 15:36:20;;;;;;;8.10;4.37;;;22.10;1.00;;;;;;5053826;28;20171;-77
2023/10/10 15:38:46;;;;;;;7.40;4.30;;;22.10;1.00;;;;;;5055152;28;20199;-77
2023/10/10 15:41:20;;;;;;;12.27;4.33;;;22.00;1.00;;;;;;5055214;28;20175;-77
2023/10/10 15:43:47;;;;;;;10.83;4.80;;;22.00;1.00;;;;;;5053630;28;20274;-77
2023/10/10 15:46:16;;;;;;;10.10;4.40;;;21.80;1.00;;;;;;5053686;28;20184;-77
2023/10/10 15:48:48;;;;;;;9.30;4.23;;;21.80;1.00;;;;;;5055230;28;20194;-77
2023/10/10 15:51:14;;;;;;;10.57;4.17;;;21.70;78.10;;;;;;5055207;28;20160;-77
2023/10/10 15:53:42;;;;;;;8.67;4.37;;;21.60;99.90;;;;;;5048374;28;20204;-77